sensor_id;sensor_type;location;lat;lon;timestamp;temperature;humidity
42683;DHT22;28293;50.930;3.464;2023-03-20T00:00:47;5.60;89.00
42683;DHT22;28293;50.930;3.464;2023-03-20T00:03:14;5.60;89.10
42683;DHT22;28293;50.930;3.464;2023-03-20T00:05:40;5.60;89.00
42683;DHT22;28293;50.930;3.464;2023-03-20T00:08:06;5.60;88.90
42683;DHT22;28293;50.930;3.464;2023-03-20T00:13:04;5.50;89.10
42683;DHT22;28293;50.930;3.464;2023-03-20T00:15:38;5.50;89.20
42683;DHT22;28293;50.930;3.464;2023-03-20T00:18:22;5.60;89.30
42683;DHT22;28293;50.930;3.464;2023-03-20T00:20:50;5.50;89.20
42683;DHT22;28293;50.930;3.464;2023-03-20T00:23:17;5.50;89.30
42683;DHT22;28293;50.930;3.464;2023-03-20T00:25:44;5.50;89.30
42683;DHT22;28293;50.930;3.464;2023-03-20T00:30:55;5.50;89.40
42683;DHT22;28293;50.930;3.464;2023-03-20T00:33:21;5.50;89.40
42683;DHT22;28293;50.930;3.464;2023-03-20T00:35:47;5.50;89.50
42683;DHT22;28293;50.930;3.464;2023-03-20T00:38:13;5.60;89.50
42683;DHT22;28293;50.930;3.464;2023-03-20T00:40:39;5.60;89.50
42683;DHT22;28293;50.930;3.464;2023-03-20T00:43:04;5.60;89.40
42683;DHT22;28293;50.930;3.464;2023-03-20T00:45:32;5.60;89.40
42683;DHT22;28293;50.930;3.464;2023-03-20T00:47:59;5.60;89.30
42683;DHT22;28293;50.930;3.464;2023-03-20T00:50:27;5.70;89.30
42683;DHT22;28293;50.930;3.464;2023-03-20T00:52:56;5.70;89.20
42683;DHT22;28293;50.930;3.464;2023-03-20T00:55:24;5.70;89.20
42683;DHT22;28293;50.930;3.464;2023-03-20T00:57:56;5.70;89.30
42683;DHT22;28293;50.930;3.464;2023-03-20T01:03:01;5.70;89.20
42683;DHT22;28293;50.930;3.464;2023-03-20T01:05:28;5.60;89.20
42683;DHT22;28293;50.930;3.464;2023-03-20T01:07:54;5.60;89.30
42683;DHT22;28293;50.930;3.464;2023-03-20T01:10:22;5.70;89.30
42683;DHT22;28293;50.930;3.464;2023-03-20T01:12:50;5.60;89.30
42683;DHT22;28293;50.930;3.464;2023-03-20T01:15:22;5.60;89.30
42683;DHT22;28293;50.930;3.464;2023-03-20T01:17:50;5.60;89.30
42683;DHT22;28293;50.930;3.464;2023-03-20T01:20:23;5.60;89.30
42683;DHT22;28293;50.930;3.464;2023-03-20T01:22:50;5.60;89.30
42683;DHT22;28293;50.930;3.464;2023-03-20T01:25:16;5.60;89.50
42683;DHT22;28293;50.930;3.464;2023-03-20T01:27:50;5.60;89.40
42683;DHT22;28293;50.930;3.464;2023-03-20T01:30:29;5.60;89.50
42683;DHT22;28293;50.930;3.464;2023-03-20T01:32:59;5.60;89.50
42683;DHT22;28293;50.930;3.464;2023-03-20T01:35:27;5.60;89.50
42683;DHT22;28293;50.930;3.464;2023-03-20T01:37:54;5.60;89.70
42683;DHT22;28293;50.930;3.464;2023-03-20T01:42:56;5.60;89.70
42683;DHT22;28293;50.930;3.464;2023-03-20T01:45:27;5.60;89.70
42683;DHT22;28293;50.930;3.464;2023-03-20T01:47:54;5.60;89.80
42683;DHT22;28293;50.930;3.464;2023-03-20T01:50:24;5.60;89.80
42683;DHT22;28293;50.930;3.464;2023-03-20T01:53:14;5.60;89.80
42683;DHT22;28293;50.930;3.464;2023-03-20T01:55:41;5.60;89.80
42683;DHT22;28293;50.930;3.464;2023-03-20T01:58:12;5.60;89.80
42683;DHT22;28293;50.930;3.464;2023-03-20T02:00:40;5.60;89.80
42683;DHT22;28293;50.930;3.464;2023-03-20T02:03:07;5.60;89.80
42683;DHT22;28293;50.930;3.464;2023-03-20T02:05:34;5.60;89.90
42683;DHT22;28293;50.930;3.464;2023-03-20T02:08:29;5.60;89.90
42683;DHT22;28293;50.930;3.464;2023-03-20T02:10:58;5.60;89.80
42683;DHT22;28293;50.930;3.464;2023-03-20T02:13:26;5.60;89.90
42683;DHT22;28293;50.930;3.464;2023-03-20T02:16:06;5.60;89.90
42683;DHT22;28293;50.930;3.464;2023-03-20T02:18:33;5.60;90.10
42683;DHT22;28293;50.930;3.464;2023-03-20T02:43:44;5.70;90.10
42683;DHT22;28293;50.930;3.464;2023-03-20T02:48:56;5.70;90.20
42683;DHT22;28293;50.930;3.464;2023-03-20T02:51:45;5.70;90.20
42683;DHT22;28293;50.930;3.464;2023-03-20T02:59:54;5.70;90.10
42683;DHT22;28293;50.930;3.464;2023-03-20T03:02:28;5.70;90.20
42683;DHT22;28293;50.930;3.464;2023-03-20T03:05:00;5.70;90.20
42683;DHT22;28293;50.930;3.464;2023-03-20T03:07:30;5.80;90.20
42683;DHT22;28293;50.930;3.464;2023-03-20T03:10:04;5.70;90.20
42683;DHT22;28293;50.930;3.464;2023-03-20T03:12:33;5.80;90.20
42683;DHT22;28293;50.930;3.464;2023-03-20T03:15:03;5.80;90.30
42683;DHT22;28293;50.930;3.464;2023-03-20T03:17:33;5.80;90.40
42683;DHT22;28293;50.930;3.464;2023-03-20T03:20:06;5.80;90.30
42683;DHT22;28293;50.930;3.464;2023-03-20T03:22:34;5.80;90.30
42683;DHT22;28293;50.930;3.464;2023-03-20T03:25:00;5.80;90.30
42683;DHT22;28293;50.930;3.464;2023-03-20T03:27:38;5.90;90.30
42683;DHT22;28293;50.930;3.464;2023-03-20T03:30:13;5.90;90.40
42683;DHT22;28293;50.930;3.464;2023-03-20T03:35:14;5.90;90.30
42683;DHT22;28293;50.930;3.464;2023-03-20T03:38:00;5.90;90.30
42683;DHT22;28293;50.930;3.464;2023-03-20T03:40:44;5.90;90.30
42683;DHT22;28293;50.930;3.464;2023-03-20T03:43:31;5.90;90.20
42683;DHT22;28293;50.930;3.464;2023-03-20T03:46:05;5.90;90.20
42683;DHT22;28293;50.930;3.464;2023-03-20T03:48:43;5.90;90.20
42683;DHT22;28293;50.930;3.464;2023-03-20T03:51:14;5.90;90.20
42683;DHT22;28293;50.930;3.464;2023-03-20T03:53:45;5.80;90.30
42683;DHT22;28293;50.930;3.464;2023-03-20T03:56:17;5.90;90.30
42683;DHT22;28293;50.930;3.464;2023-03-20T03:58:49;5.90;90.30
42683;DHT22;28293;50.930;3.464;2023-03-20T04:01:16;5.90;90.40
42683;DHT22;28293;50.930;3.464;2023-03-20T04:03:50;5.90;90.40
42683;DHT22;28293;50.930;3.464;2023-03-20T04:06:17;5.90;90.40
42683;DHT22;28293;50.930;3.464;2023-03-20T04:08:43;5.90;90.40
42683;DHT22;28293;50.930;3.464;2023-03-20T04:11:23;5.90;90.40
42683;DHT22;28293;50.930;3.464;2023-03-20T04:13:50;5.90;90.30
42683;DHT22;28293;50.930;3.464;2023-03-20T04:16:18;5.90;90.30
42683;DHT22;28293;50.930;3.464;2023-03-20T04:18:45;5.90;90.30
42683;DHT22;28293;50.930;3.464;2023-03-20T04:21:12;5.90;90.40
42683;DHT22;28293;50.930;3.464;2023-03-20T04:23:37;5.90;90.40
42683;DHT22;28293;50.930;3.464;2023-03-20T04:26:04;6.00;90.40
42683;DHT22;28293;50.930;3.464;2023-03-20T04:28:30;6.00;90.40
42683;DHT22;28293;50.930;3.464;2023-03-20T04:30:58;6.00;90.30
42683;DHT22;28293;50.930;3.464;2023-03-20T04:33:25;6.00;90.30
42683;DHT22;28293;50.930;3.464;2023-03-20T04:35:51;6.00;90.20
42683;DHT22;28293;50.930;3.464;2023-03-20T04:38:17;6.00;90.20
42683;DHT22;28293;50.930;3.464;2023-03-20T04:40:44;6.00;90.30
42683;DHT22;28293;50.930;3.464;2023-03-20T04:43:09;6.10;90.20
42683;DHT22;28293;50.930;3.464;2023-03-20T04:45:35;6.00;90.20
42683;DHT22;28293;50.930;3.464;2023-03-20T04:48:01;6.10;90.30
42683;DHT22;28293;50.930;3.464;2023-03-20T04:50:26;6.00;90.40
42683;DHT22;28293;50.930;3.464;2023-03-20T04:52:52;6.10;90.50
42683;DHT22;28293;50.930;3.464;2023-03-20T04:55:18;6.00;90.60
42683;DHT22;28293;50.930;3.464;2023-03-20T04:57:44;6.00;90.60
42683;DHT22;28293;50.930;3.464;2023-03-20T05:00:10;6.00;90.60
42683;DHT22;28293;50.930;3.464;2023-03-20T05:02:36;6.00;90.70
42683;DHT22;28293;50.930;3.464;2023-03-20T05:05:02;6.10;90.60
42683;DHT22;28293;50.930;3.464;2023-03-20T05:07:28;6.10;90.60
42683;DHT22;28293;50.930;3.464;2023-03-20T05:09:54;6.10;90.60
42683;DHT22;28293;50.930;3.464;2023-03-20T05:12:20;6.10;90.50
42683;DHT22;28293;50.930;3.464;2023-03-20T05:14:47;6.10;90.50
42683;DHT22;28293;50.930;3.464;2023-03-20T05:17:13;6.10;90.50
42683;DHT22;28293;50.930;3.464;2023-03-20T05:19:38;6.10;90.50
42683;DHT22;28293;50.930;3.464;2023-03-20T05:22:04;6.10;90.50
42683;DHT22;28293;50.930;3.464;2023-03-20T05:24:30;6.10;90.40
42683;DHT22;28293;50.930;3.464;2023-03-20T05:26:56;6.10;90.50
42683;DHT22;28293;50.930;3.464;2023-03-20T05:29:22;6.10;90.40
42683;DHT22;28293;50.930;3.464;2023-03-20T05:31:47;6.10;90.40
42683;DHT22;28293;50.930;3.464;2023-03-20T05:34:13;6.10;90.40
42683;DHT22;28293;50.930;3.464;2023-03-20T05:36:39;6.10;90.40
42683;DHT22;28293;50.930;3.464;2023-03-20T05:39:04;6.10;90.40
42683;DHT22;28293;50.930;3.464;2023-03-20T05:41:30;6.10;90.40
42683;DHT22;28293;50.930;3.464;2023-03-20T05:43:56;6.10;90.40
42683;DHT22;28293;50.930;3.464;2023-03-20T05:46:22;6.10;90.40
42683;DHT22;28293;50.930;3.464;2023-03-20T05:48:47;6.10;90.30
42683;DHT22;28293;50.930;3.464;2023-03-20T05:51:13;6.10;90.30
42683;DHT22;28293;50.930;3.464;2023-03-20T05:53:39;6.20;90.30
42683;DHT22;28293;50.930;3.464;2023-03-20T05:56:05;6.20;90.20
42683;DHT22;28293;50.930;3.464;2023-03-20T05:58:31;6.10;90.20
42683;DHT22;28293;50.930;3.464;2023-03-20T06:00:57;6.10;90.20
42683;DHT22;28293;50.930;3.464;2023-03-20T06:03:23;6.10;90.10
42683;DHT22;28293;50.930;3.464;2023-03-20T06:05:48;6.10;90.10
42683;DHT22;28293;50.930;3.464;2023-03-20T06:08:14;6.10;90.20
42683;DHT22;28293;50.930;3.464;2023-03-20T06:10:40;6.20;90.10
42683;DHT22;28293;50.930;3.464;2023-03-20T06:13:06;6.20;90.10
42683;DHT22;28293;50.930;3.464;2023-03-20T06:15:32;6.20;89.90
42683;DHT22;28293;50.930;3.464;2023-03-20T06:17:58;6.30;89.90
42683;DHT22;28293;50.930;3.464;2023-03-20T06:20:24;6.30;89.90
42683;DHT22;28293;50.930;3.464;2023-03-20T06:22:50;6.30;89.90
42683;DHT22;28293;50.930;3.464;2023-03-20T06:25:16;6.30;89.80
42683;DHT22;28293;50.930;3.464;2023-03-20T06:27:42;6.30;89.70
42683;DHT22;28293;50.930;3.464;2023-03-20T06:30:09;6.30;89.80
42683;DHT22;28293;50.930;3.464;2023-03-20T06:32:34;6.30;89.80
42683;DHT22;28293;50.930;3.464;2023-03-20T06:35:00;6.30;89.80
42683;DHT22;28293;50.930;3.464;2023-03-20T06:37:26;6.30;89.70
42683;DHT22;28293;50.930;3.464;2023-03-20T06:39:52;6.40;89.70
42683;DHT22;28293;50.930;3.464;2023-03-20T06:42:17;6.40;89.70
42683;DHT22;28293;50.930;3.464;2023-03-20T06:44:43;6.50;89.60
42683;DHT22;28293;50.930;3.464;2023-03-20T06:47:09;6.50;89.50
42683;DHT22;28293;50.930;3.464;2023-03-20T06:49:34;6.50;89.30
42683;DHT22;28293;50.930;3.464;2023-03-20T06:52:00;6.60;89.40
42683;DHT22;28293;50.930;3.464;2023-03-20T06:54:26;6.60;89.20
42683;DHT22;28293;50.930;3.464;2023-03-20T06:56:52;6.70;89.10
42683;DHT22;28293;50.930;3.464;2023-03-20T06:59:17;6.70;89.00
42683;DHT22;28293;50.930;3.464;2023-03-20T07:01:43;6.80;89.00
42683;DHT22;28293;50.930;3.464;2023-03-20T07:04:09;6.80;88.80
42683;DHT22;28293;50.930;3.464;2023-03-20T07:06:35;6.80;88.70
42683;DHT22;28293;50.930;3.464;2023-03-20T07:09:01;6.80;88.60
42683;DHT22;28293;50.930;3.464;2023-03-20T07:11:27;6.90;88.60
42683;DHT22;28293;50.930;3.464;2023-03-20T07:13:53;6.90;88.40
42683;DHT22;28293;50.930;3.464;2023-03-20T07:16:19;7.00;88.30
42683;DHT22;28293;50.930;3.464;2023-03-20T07:18:45;7.10;88.10
42683;DHT22;28293;50.930;3.464;2023-03-20T07:21:19;7.10;87.80
42683;DHT22;28293;50.930;3.464;2023-03-20T07:23:45;7.10;87.40
42683;DHT22;28293;50.930;3.464;2023-03-20T07:26:11;7.10;87.40
42683;DHT22;28293;50.930;3.464;2023-03-20T07:28:37;7.20;87.30
42683;DHT22;28293;50.930;3.464;2023-03-20T07:31:03;7.30;87.30
42683;DHT22;28293;50.930;3.464;2023-03-20T07:33:28;7.30;87.10
42683;DHT22;28293;50.930;3.464;2023-03-20T07:35:54;7.30;87.00
42683;DHT22;28293;50.930;3.464;2023-03-20T07:38:21;7.30;86.80
42683;DHT22;28293;50.930;3.464;2023-03-20T07:40:47;7.30;86.70
42683;DHT22;28293;50.930;3.464;2023-03-20T07:43:14;7.30;86.70
42683;DHT22;28293;50.930;3.464;2023-03-20T07:45:41;7.40;86.50
42683;DHT22;28293;50.930;3.464;2023-03-20T07:48:06;7.40;86.40
42683;DHT22;28293;50.930;3.464;2023-03-20T07:50:32;7.40;86.10
42683;DHT22;28293;50.930;3.464;2023-03-20T07:52:58;7.60;85.90
42683;DHT22;28293;50.930;3.464;2023-03-20T07:55:24;7.60;85.60
42683;DHT22;28293;50.930;3.464;2023-03-20T07:57:50;7.70;85.60
42683;DHT22;28293;50.930;3.464;2023-03-20T08:00:17;7.80;85.20
42683;DHT22;28293;50.930;3.464;2023-03-20T08:02:43;7.90;85.50
42683;DHT22;28293;50.930;3.464;2023-03-20T08:05:09;8.00;84.80
42683;DHT22;28293;50.930;3.464;2023-03-20T08:07:35;8.10;84.60
42683;DHT22;28293;50.930;3.464;2023-03-20T08:10:01;8.10;84.40
42683;DHT22;28293;50.930;3.464;2023-03-20T08:12:27;8.20;83.90
42683;DHT22;28293;50.930;3.464;2023-03-20T08:14:53;8.40;83.60
42683;DHT22;28293;50.930;3.464;2023-03-20T08:17:19;8.60;82.90
42683;DHT22;28293;50.930;3.464;2023-03-20T08:19:45;8.60;82.50
42683;DHT22;28293;50.930;3.464;2023-03-20T08:22:11;8.60;82.10
42683;DHT22;28293;50.930;3.464;2023-03-20T08:24:37;8.60;82.00
42683;DHT22;28293;50.930;3.464;2023-03-20T08:27:02;8.60;81.80
42683;DHT22;28293;50.930;3.464;2023-03-20T08:29:29;8.60;81.70
42683;DHT22;28293;50.930;3.464;2023-03-20T08:31:54;8.70;81.90
42683;DHT22;28293;50.930;3.464;2023-03-20T08:34:21;8.70;81.60
42683;DHT22;28293;50.930;3.464;2023-03-20T08:36:47;8.80;81.30
42683;DHT22;28293;50.930;3.464;2023-03-20T08:39:12;8.80;81.20
42683;DHT22;28293;50.930;3.464;2023-03-20T08:41:39;8.80;81.10
42683;DHT22;28293;50.930;3.464;2023-03-20T08:44:06;8.90;81.40
42683;DHT22;28293;50.930;3.464;2023-03-20T08:46:32;9.00;80.90
42683;DHT22;28293;50.930;3.464;2023-03-20T08:48:58;9.10;80.40
42683;DHT22;28293;50.930;3.464;2023-03-20T08:51:25;9.20;80.30
42683;DHT22;28293;50.930;3.464;2023-03-20T08:53:51;9.30;80.10
42683;DHT22;28293;50.930;3.464;2023-03-20T08:56:17;9.40;79.60
42683;DHT22;28293;50.930;3.464;2023-03-20T08:58:43;9.60;79.20
42683;DHT22;28293;50.930;3.464;2023-03-20T09:01:09;9.60;79.40
42683;DHT22;28293;50.930;3.464;2023-03-20T09:03:35;9.80;78.80
42683;DHT22;28293;50.930;3.464;2023-03-20T09:06:05;9.90;77.70
42683;DHT22;28293;50.930;3.464;2023-03-20T09:08:31;10.10;77.50
42683;DHT22;28293;50.930;3.464;2023-03-20T09:10:57;10.20;77.50
42683;DHT22;28293;50.930;3.464;2023-03-20T09:13:23;10.20;76.20
42683;DHT22;28293;50.930;3.464;2023-03-20T09:15:50;10.10;76.30
42683;DHT22;28293;50.930;3.464;2023-03-20T09:18:17;10.00;77.20
42683;DHT22;28293;50.930;3.464;2023-03-20T09:20:43;9.90;77.40
42683;DHT22;28293;50.930;3.464;2023-03-20T09:23:09;10.00;77.20
42683;DHT22;28293;50.930;3.464;2023-03-20T09:25:35;10.10;77.10
42683;DHT22;28293;50.930;3.464;2023-03-20T09:28:01;10.10;77.00
42683;DHT22;28293;50.930;3.464;2023-03-20T09:30:27;10.10;77.00
42683;DHT22;28293;50.930;3.464;2023-03-20T09:32:52;10.10;77.00
42683;DHT22;28293;50.930;3.464;2023-03-20T09:35:18;10.10;76.90
42683;DHT22;28293;50.930;3.464;2023-03-20T09:37:44;10.10;76.70
42683;DHT22;28293;50.930;3.464;2023-03-20T09:40:28;10.00;77.10
42683;DHT22;28293;50.930;3.464;2023-03-20T09:54:26;10.10;77.90
42683;DHT22;28293;50.930;3.464;2023-03-20T09:56:55;10.20;78.80
42683;DHT22;28293;50.930;3.464;2023-03-20T09:59:24;10.20;79.50
42683;DHT22;28293;50.930;3.464;2023-03-20T10:01:58;10.20;80.00
42683;DHT22;28293;50.930;3.464;2023-03-20T10:04:25;10.30;79.50
42683;DHT22;28293;50.930;3.464;2023-03-20T10:06:52;10.40;79.30
42683;DHT22;28293;50.930;3.464;2023-03-20T10:09:26;10.50;79.00
42683;DHT22;28293;50.930;3.464;2023-03-20T10:22:40;10.80;77.30
42683;DHT22;28293;50.930;3.464;2023-03-20T10:25:22;10.80;78.20
42683;DHT22;28293;50.930;3.464;2023-03-20T10:27:57;10.80;77.80
42683;DHT22;28293;50.930;3.464;2023-03-20T10:41:02;11.40;75.40
42683;DHT22;28293;50.930;3.464;2023-03-20T10:43:33;11.60;75.60
42683;DHT22;28293;50.930;3.464;2023-03-20T10:46:09;11.90;74.00
42683;DHT22;28293;50.930;3.464;2023-03-20T10:48:51;12.00;73.40
42683;DHT22;28293;50.930;3.464;2023-03-20T10:51:21;11.80;73.00
42683;DHT22;28293;50.930;3.464;2023-03-20T10:56:31;12.00;72.90
42683;DHT22;28293;50.930;3.464;2023-03-20T10:59:07;12.10;72.10
42683;DHT22;28293;50.930;3.464;2023-03-20T11:01:35;12.30;71.40
42683;DHT22;28293;50.930;3.464;2023-03-20T11:04:01;12.50;71.40
42683;DHT22;28293;50.930;3.464;2023-03-20T11:06:30;12.60;70.50
42683;DHT22;28293;50.930;3.464;2023-03-20T11:09:10;12.60;70.10
42683;DHT22;28293;50.930;3.464;2023-03-20T11:11:38;12.70;70.10
42683;DHT22;28293;50.930;3.464;2023-03-20T11:14:15;12.80;69.50
42683;DHT22;28293;50.930;3.464;2023-03-20T11:16:47;12.80;70.30
42683;DHT22;28293;50.930;3.464;2023-03-20T11:19:14;12.60;70.40
42683;DHT22;28293;50.930;3.464;2023-03-20T11:21:50;12.60;70.70
42683;DHT22;28293;50.930;3.464;2023-03-20T11:24:39;12.60;70.20
42683;DHT22;28293;50.930;3.464;2023-03-20T11:29:32;12.60;70.90
42683;DHT22;28293;50.930;3.464;2023-03-20T11:32:32;12.60;70.60
42683;DHT22;28293;50.930;3.464;2023-03-20T11:37:54;12.70;70.90
42683;DHT22;28293;50.930;3.464;2023-03-20T11:43:02;12.90;69.90
42683;DHT22;28293;50.930;3.464;2023-03-20T11:45:37;13.00;70.50
42683;DHT22;28293;50.930;3.464;2023-03-20T11:48:04;13.10;70.10
42683;DHT22;28293;50.930;3.464;2023-03-20T11:50:33;13.20;69.60
42683;DHT22;28293;50.930;3.464;2023-03-20T11:53:00;13.10;69.70
42683;DHT22;28293;50.930;3.464;2023-03-20T11:55:32;13.00;69.30
42683;DHT22;28293;50.930;3.464;2023-03-20T11:58:00;12.90;69.60
42683;DHT22;28293;50.930;3.464;2023-03-20T12:00:29;12.90;70.40
42683;DHT22;28293;50.930;3.464;2023-03-20T12:03:00;12.80;70.60
42683;DHT22;28293;50.930;3.464;2023-03-20T12:05:31;12.80;70.90
42683;DHT22;28293;50.930;3.464;2023-03-20T12:08:04;12.80;70.70
42683;DHT22;28293;50.930;3.464;2023-03-20T12:10:38;13.00;70.70
42683;DHT22;28293;50.930;3.464;2023-03-20T12:13:15;13.20;70.10
42683;DHT22;28293;50.930;3.464;2023-03-20T12:15:49;13.60;69.40
42683;DHT22;28293;50.930;3.464;2023-03-20T12:21:11;13.80;68.80
42683;DHT22;28293;50.930;3.464;2023-03-20T12:23:52;13.80;68.10
42683;DHT22;28293;50.930;3.464;2023-03-20T12:26:26;13.60;69.30
42683;DHT22;28293;50.930;3.464;2023-03-20T12:29:02;13.60;69.30
42683;DHT22;28293;50.930;3.464;2023-03-20T12:31:47;13.60;69.70
42683;DHT22;28293;50.930;3.464;2023-03-20T12:34:25;13.50;69.90
42683;DHT22;28293;50.930;3.464;2023-03-20T12:36:54;13.40;70.70
42683;DHT22;28293;50.930;3.464;2023-03-20T12:39:25;13.40;71.10
42683;DHT22;28293;50.930;3.464;2023-03-20T12:42:07;13.50;70.50
42683;DHT22;28293;50.930;3.464;2023-03-20T12:50:22;13.10;71.50
42683;DHT22;28293;50.930;3.464;2023-03-20T12:58:40;13.00;72.10
42683;DHT22;28293;50.930;3.464;2023-03-20T13:04:11;13.10;72.00
42683;DHT22;28293;50.930;3.464;2023-03-20T13:09:36;13.00;72.30
42683;DHT22;28293;50.930;3.464;2023-03-20T13:20:53;13.20;72.20
42683;DHT22;28293;50.930;3.464;2023-03-20T13:23:48;13.30;72.30
42683;DHT22;28293;50.930;3.464;2023-03-20T13:26:38;13.20;72.30
42683;DHT22;28293;50.930;3.464;2023-03-20T13:34:26;13.10;72.10
42683;DHT22;28293;50.930;3.464;2023-03-20T13:37:21;13.10;72.40
42683;DHT22;28293;50.930;3.464;2023-03-20T13:42:41;13.00;73.20
42683;DHT22;28293;50.930;3.464;2023-03-20T13:45:38;13.10;73.50
42683;DHT22;28293;50.930;3.464;2023-03-20T13:56:56;13.10;72.50
42683;DHT22;28293;50.930;3.464;2023-03-20T14:04:22;13.10;72.20
42683;DHT22;28293;50.930;3.464;2023-03-20T14:06:50;13.10;72.50
42683;DHT22;28293;50.930;3.464;2023-03-20T14:09:35;13.10;72.70
42683;DHT22;28293;50.930;3.464;2023-03-20T14:12:11;13.20;72.50
42683;DHT22;28293;50.930;3.464;2023-03-20T14:14:46;13.20;72.40
42683;DHT22;28293;50.930;3.464;2023-03-20T14:17:20;13.10;72.30
42683;DHT22;28293;50.930;3.464;2023-03-20T14:19:48;13.20;72.40
42683;DHT22;28293;50.930;3.464;2023-03-20T14:22:19;13.30;72.30
42683;DHT22;28293;50.930;3.464;2023-03-20T14:24:53;13.10;72.30
42683;DHT22;28293;50.930;3.464;2023-03-20T14:27:23;13.20;72.60
42683;DHT22;28293;50.930;3.464;2023-03-20T14:29:49;13.30;72.40
42683;DHT22;28293;50.930;3.464;2023-03-20T14:40:19;13.70;70.90
42683;DHT22;28293;50.930;3.464;2023-03-20T14:42:57;13.80;70.70
42683;DHT22;28293;50.930;3.464;2023-03-20T14:45:30;13.70;70.40
42683;DHT22;28293;50.930;3.464;2023-03-20T14:48:25;13.70;70.60
42683;DHT22;28293;50.930;3.464;2023-03-20T14:53:27;13.70;70.40
42683;DHT22;28293;50.930;3.464;2023-03-20T15:01:02;14.00;70.00
42683;DHT22;28293;50.930;3.464;2023-03-20T15:03:29;14.10;70.20
42683;DHT22;28293;50.930;3.464;2023-03-20T15:05:56;14.10;70.00
42683;DHT22;28293;50.930;3.464;2023-03-20T15:08:28;14.10;69.90
42683;DHT22;28293;50.930;3.464;2023-03-20T15:10:57;14.00;70.30
42683;DHT22;28293;50.930;3.464;2023-03-20T15:13:24;13.90;71.20
42683;DHT22;28293;50.930;3.464;2023-03-20T15:15:56;14.10;70.90
42683;DHT22;28293;50.930;3.464;2023-03-20T15:18:25;14.10;71.10
42683;DHT22;28293;50.930;3.464;2023-03-20T15:20:51;14.00;71.30
42683;DHT22;28293;50.930;3.464;2023-03-20T15:23:17;14.00;71.40
42683;DHT22;28293;50.930;3.464;2023-03-20T15:25:45;13.90;71.90
42683;DHT22;28293;50.930;3.464;2023-03-20T15:28:15;14.00;71.80
42683;DHT22;28293;50.930;3.464;2023-03-20T15:30:41;13.80;71.90
42683;DHT22;28293;50.930;3.464;2023-03-20T15:33:16;13.70;72.30
42683;DHT22;28293;50.930;3.464;2023-03-20T15:35:44;13.60;72.90
42683;DHT22;28293;50.930;3.464;2023-03-20T15:38:11;13.30;73.80
42683;DHT22;28293;50.930;3.464;2023-03-20T15:40:39;13.30;74.00
42683;DHT22;28293;50.930;3.464;2023-03-20T15:43:19;13.30;73.90
42683;DHT22;28293;50.930;3.464;2023-03-20T15:45:45;13.30;74.20
42683;DHT22;28293;50.930;3.464;2023-03-20T15:48:19;13.40;74.20
42683;DHT22;28293;50.930;3.464;2023-03-20T15:50:47;13.30;74.20
42683;DHT22;28293;50.930;3.464;2023-03-20T15:53:22;13.20;74.10
42683;DHT22;28293;50.930;3.464;2023-03-20T15:55:49;13.10;74.30
42683;DHT22;28293;50.930;3.464;2023-03-20T15:58:16;13.10;74.50
42683;DHT22;28293;50.930;3.464;2023-03-20T16:00:45;13.10;74.50
42683;DHT22;28293;50.930;3.464;2023-03-20T16:03:15;13.10;75.10
42683;DHT22;28293;50.930;3.464;2023-03-20T16:05:44;13.10;74.90
42683;DHT22;28293;50.930;3.464;2023-03-20T16:08:13;13.10;75.30
42683;DHT22;28293;50.930;3.464;2023-03-20T16:10:41;13.20;75.30
42683;DHT22;28293;50.930;3.464;2023-03-20T16:13:11;13.20;75.50
42683;DHT22;28293;50.930;3.464;2023-03-20T16:15:38;13.20;75.20
42683;DHT22;28293;50.930;3.464;2023-03-20T16:18:04;13.20;74.80
42683;DHT22;28293;50.930;3.464;2023-03-20T16:20:37;13.10;75.00
42683;DHT22;28293;50.930;3.464;2023-03-20T16:23:06;13.10;75.40
42683;DHT22;28293;50.930;3.464;2023-03-20T16:25:33;13.10;76.10
42683;DHT22;28293;50.930;3.464;2023-03-20T16:28:00;13.00;76.30
42683;DHT22;28293;50.930;3.464;2023-03-20T16:30:29;12.90;76.40
42683;DHT22;28293;50.930;3.464;2023-03-20T16:33:10;12.80;76.30
42683;DHT22;28293;50.930;3.464;2023-03-20T16:35:41;12.80;76.30
42683;DHT22;28293;50.930;3.464;2023-03-20T16:38:25;12.90;76.40
42683;DHT22;28293;50.930;3.464;2023-03-20T16:40:56;12.80;76.40
42683;DHT22;28293;50.930;3.464;2023-03-20T16:43:29;12.80;75.80
42683;DHT22;28293;50.930;3.464;2023-03-20T16:45:57;12.80;75.70
42683;DHT22;28293;50.930;3.464;2023-03-20T16:48:32;12.80;75.50
42683;DHT22;28293;50.930;3.464;2023-03-20T16:53:49;12.70;75.50
42683;DHT22;28293;50.930;3.464;2023-03-20T16:56:26;12.70;75.30
42683;DHT22;28293;50.930;3.464;2023-03-20T16:58:52;12.70;75.30
42683;DHT22;28293;50.930;3.464;2023-03-20T17:01:21;12.80;75.40
42683;DHT22;28293;50.930;3.464;2023-03-20T17:03:51;12.80;75.60
42683;DHT22;28293;50.930;3.464;2023-03-20T17:08:49;12.70;75.50
42683;DHT22;28293;50.930;3.464;2023-03-20T17:11:31;12.60;75.60
42683;DHT22;28293;50.930;3.464;2023-03-20T17:13:57;12.60;76.40
42683;DHT22;28293;50.930;3.464;2023-03-20T17:16:23;12.60;76.60
42683;DHT22;28293;50.930;3.464;2023-03-20T17:19:06;12.60;77.80
42683;DHT22;28293;50.930;3.464;2023-03-20T17:21:35;12.40;79.10
42683;DHT22;28293;50.930;3.464;2023-03-20T17:24:01;12.30;79.80
42683;DHT22;28293;50.930;3.464;2023-03-20T17:26:27;12.30;80.10
42683;DHT22;28293;50.930;3.464;2023-03-20T17:28:53;12.30;80.40
42683;DHT22;28293;50.930;3.464;2023-03-20T17:31:19;12.30;80.60
42683;DHT22;28293;50.930;3.464;2023-03-20T17:33:45;12.20;80.80
42683;DHT22;28293;50.930;3.464;2023-03-20T17:36:23;12.20;80.80
42683;DHT22;28293;50.930;3.464;2023-03-20T17:38:50;12.20;80.70
42683;DHT22;28293;50.930;3.464;2023-03-20T17:41:18;12.20;80.20
42683;DHT22;28293;50.930;3.464;2023-03-20T17:43:45;12.20;80.10
42683;DHT22;28293;50.930;3.464;2023-03-20T17:46:26;12.10;79.40
42683;DHT22;28293;50.930;3.464;2023-03-20T17:48:57;12.10;79.00
42683;DHT22;28293;50.930;3.464;2023-03-20T17:51:23;12.10;78.70
42683;DHT22;28293;50.930;3.464;2023-03-20T17:53:52;12.10;78.60
42683;DHT22;28293;50.930;3.464;2023-03-20T17:56:20;12.10;78.40
42683;DHT22;28293;50.930;3.464;2023-03-20T17:58:46;12.10;78.50
42683;DHT22;28293;50.930;3.464;2023-03-20T18:01:12;12.10;78.70
42683;DHT22;28293;50.930;3.464;2023-03-20T18:03:39;12.10;78.60
42683;DHT22;28293;50.930;3.464;2023-03-20T18:06:05;12.10;78.50
42683;DHT22;28293;50.930;3.464;2023-03-20T18:08:31;12.10;78.70
42683;DHT22;28293;50.930;3.464;2023-03-20T18:10:57;12.10;78.80
42683;DHT22;28293;50.930;3.464;2023-03-20T18:13:24;12.00;78.90
42683;DHT22;28293;50.930;3.464;2023-03-20T18:15:56;12.00;79.10
42683;DHT22;28293;50.930;3.464;2023-03-20T18:18:22;12.00;79.10
42683;DHT22;28293;50.930;3.464;2023-03-20T18:20:48;12.10;79.10
42683;DHT22;28293;50.930;3.464;2023-03-20T18:23:14;12.00;79.10
42683;DHT22;28293;50.930;3.464;2023-03-20T18:25:40;12.10;79.00
42683;DHT22;28293;50.930;3.464;2023-03-20T18:28:10;12.00;79.10
42683;DHT22;28293;50.930;3.464;2023-03-20T18:30:39;12.00;79.10
42683;DHT22;28293;50.930;3.464;2023-03-20T18:33:08;11.90;79.20